Northfield, Iowa
Current Conditions -  °F | °C
As of 6:53 PM on Tuesday 21 Oct 2014 (Local Time) from KBRL Reporting Station
Clear Clear  
Wind Chill: 54°   Ceiling: Unl
Heat Index: 54°   Visibility: 10mi
Dew Point: 39°   Wind: 6mph
Humidity: 57%   Direction: 80°E
Pressure: 30.17"   Gusts: NA
Location:  41.0155°N, 91.1055°W
Report Text: KBRL 212353Z AUTO 08005KT 10SM CLR 12/04 A3017 RMK AO2 SLP219 T01220039 10161 20122 53008
Loading
Personal Weather Stations






























Interactive Weather Map
Tropical Storm Tracking
New forecast layout! Learn more

10-Day Weather Forecast

Advertisements
Track Severe Weather on mobile